sensor_id;sensor_type;location;lat;lon;timestamp;pressure;altitude;pressure_sealevel;temperature;humidity
40948;BME280;49382;-25.924;28.194;2023-03-14T00:01:33;85348.84;;;18.96;41.14
40948;BME280;49382;-25.924;28.194;2023-03-14T00:03:59;85349.43;;;19.42;40.40
40948;BME280;49382;-25.924;28.194;2023-03-14T00:06:25;85350.65;;;18.98;41.15
40948;BME280;49382;-25.924;28.194;2023-03-14T00:08:52;85350.03;;;18.85;41.30
40948;BME280;49382;-25.924;28.194;2023-03-14T00:11:20;85350.02;;;18.77;41.11
40948;BME280;49382;-25.924;28.194;2023-03-14T00:13:42;85347.96;;;17.72;43.00
40948;BME280;49382;-25.924;28.194;2023-03-14T00:16:10;85345.25;;;20.00;39.52
40948;BME280;49382;-25.924;28.194;2023-03-14T00:18:34;85348.71;;;21.36;37.33
40948;BME280;49382;-25.924;28.194;2023-03-14T00:20:59;85340.32;;;20.52;38.31
40948;BME280;49382;-25.924;28.194;2023-03-14T00:23:25;85345.28;;;22.08;36.12
40948;BME280;49382;-25.924;28.194;2023-03-14T00:25:51;85343.90;;;21.95;36.14
40948;BME280;49382;-25.924;28.194;2023-03-14T00:28:16;85337.42;;;22.35;35.64
40948;BME280;49382;-25.924;28.194;2023-03-14T00:30:42;85336.58;;;22.92;34.86
40948;BME280;49382;-25.924;28.194;2023-03-14T00:33:07;85332.75;;;22.49;35.09
40948;BME280;49382;-25.924;28.194;2023-03-14T00:35:33;85332.50;;;22.14;35.39
40948;BME280;49382;-25.924;28.194;2023-03-14T00:37:59;85329.90;;;22.33;35.70
40948;BME280;49382;-25.924;28.194;2023-03-14T00:40:25;85328.92;;;22.40;35.54
40948;BME280;49382;-25.924;28.194;2023-03-14T00:42:51;85327.36;;;21.90;36.33
40948;BME280;49382;-25.924;28.194;2023-03-14T00:45:17;85322.54;;;23.37;34.29
40948;BME280;49382;-25.924;28.194;2023-03-14T00:47:42;85323.28;;;21.26;36.84
40948;BME280;49382;-25.924;28.194;2023-03-14T00:50:09;85323.33;;;22.12;35.94
40948;BME280;49382;-25.924;28.194;2023-03-14T00:52:34;85323.02;;;21.15;37.72
40948;BME280;49382;-25.924;28.194;2023-03-14T00:54:59;85320.18;;;20.32;38.94
40948;BME280;49382;-25.924;28.194;2023-03-14T00:57:24;85320.32;;;19.12;40.56
40948;BME280;49382;-25.924;28.194;2023-03-14T00:59:51;85324.95;;;18.59;42.00
40948;BME280;49382;-25.924;28.194;2023-03-14T01:02:16;85325.95;;;18.77;41.39
40948;BME280;49382;-25.924;28.194;2023-03-14T01:04:42;85327.38;;;19.79;40.36
40948;BME280;49382;-25.924;28.194;2023-03-14T01:07:08;85325.47;;;19.45;41.07
40948;BME280;49382;-25.924;28.194;2023-03-14T01:09:33;85324.29;;;20.25;39.82
40948;BME280;49382;-25.924;28.194;2023-03-14T01:11:59;85328.52;;;19.54;40.24
40948;BME280;49382;-25.924;28.194;2023-03-14T01:14:25;85326.14;;;20.98;38.16
40948;BME280;49382;-25.924;28.194;2023-03-14T01:16:52;85323.57;;;19.03;41.38
40948;BME280;49382;-25.924;28.194;2023-03-14T01:19:17;85318.43;;;19.30;40.96
40948;BME280;49382;-25.924;28.194;2023-03-14T01:21:42;85316.74;;;18.72;41.91
40948;BME280;49382;-25.924;28.194;2023-03-14T01:24:11;85315.07;;;18.17;43.45
40948;BME280;49382;-25.924;28.194;2023-03-14T01:26:35;85310.88;;;18.43;42.45
40948;BME280;49382;-25.924;28.194;2023-03-14T01:29:00;85307.79;;;19.79;39.95
40948;BME280;49382;-25.924;28.194;2023-03-14T01:31:26;85307.86;;;19.40;40.61
40948;BME280;49382;-25.924;28.194;2023-03-14T01:33:52;85306.67;;;19.87;39.55
40948;BME280;49382;-25.924;28.194;2023-03-14T01:36:17;85312.14;;;22.36;36.79
40948;BME280;49382;-25.924;28.194;2023-03-14T01:38:43;85311.07;;;19.72;40.56
40948;BME280;49382;-25.924;28.194;2023-03-14T01:41:12;85312.64;;;19.72;40.12
40948;BME280;49382;-25.924;28.194;2023-03-14T01:43:33;85316.74;;;20.97;38.37
40948;BME280;49382;-25.924;28.194;2023-03-14T01:48:26;85310.00;;;21.20;38.09
40948;BME280;49382;-25.924;28.194;2023-03-14T01:50:53;85309.37;;;18.97;40.66
40948;BME280;49382;-25.924;28.194;2023-03-14T01:53:17;85314.62;;;20.83;38.21
40948;BME280;49382;-25.924;28.194;2023-03-14T01:55:42;85312.21;;;21.16;37.69
40948;BME280;49382;-25.924;28.194;2023-03-14T01:58:09;85316.20;;;22.21;36.23
40948;BME280;49382;-25.924;28.194;2023-03-14T02:00:33;85314.42;;;20.87;37.89
40948;BME280;49382;-25.924;28.194;2023-03-14T02:03:01;85309.10;;;18.87;41.75
40948;BME280;49382;-25.924;28.194;2023-03-14T02:05:26;85309.56;;;18.62;41.80
40948;BME280;49382;-25.924;28.194;2023-03-14T02:07:53;85314.69;;;20.54;39.17
40948;BME280;49382;-25.924;28.194;2023-03-14T02:10:17;85312.61;;;20.41;39.29
40948;BME280;49382;-25.924;28.194;2023-03-14T02:12:42;85316.85;;;20.81;38.64
40948;BME280;49382;-25.924;28.194;2023-03-14T02:15:09;85316.91;;;20.06;39.75
40948;BME280;49382;-25.924;28.194;2023-03-14T02:17:34;85321.44;;;19.90;40.04
40948;BME280;49382;-25.924;28.194;2023-03-14T02:22:25;85318.27;;;20.48;39.27
40948;BME280;49382;-25.924;28.194;2023-03-14T02:24:58;85324.54;;;20.75;38.27
40948;BME280;49382;-25.924;28.194;2023-03-14T02:27:17;85328.24;;;21.30;37.50
40948;BME280;49382;-25.924;28.194;2023-03-14T02:29:49;85330.67;;;21.54;37.16
40948;BME280;49382;-25.924;28.194;2023-03-14T02:32:08;85325.57;;;20.25;39.02
40948;BME280;49382;-25.924;28.194;2023-03-14T02:34:34;85331.34;;;21.46;37.36
40948;BME280;49382;-25.924;28.194;2023-03-14T02:37:01;85335.23;;;20.08;39.98
40948;BME280;49382;-25.924;28.194;2023-03-14T02:39:31;85336.64;;;21.78;37.36
40948;BME280;49382;-25.924;28.194;2023-03-14T02:41:53;85338.72;;;19.36;40.10
40948;BME280;49382;-25.924;28.194;2023-03-14T02:44:17;85342.60;;;21.79;37.22
40948;BME280;49382;-25.924;28.194;2023-03-14T02:46:42;85340.37;;;20.70;38.30
40948;BME280;49382;-25.924;28.194;2023-03-14T02:49:10;85348.25;;;22.45;36.68
40948;BME280;49382;-25.924;28.194;2023-03-14T02:51:33;85343.98;;;20.84;38.86
40948;BME280;49382;-25.924;28.194;2023-03-14T02:53:58;85345.36;;;21.49;38.24
40948;BME280;49382;-25.924;28.194;2023-03-14T02:56:23;85340.74;;;20.69;39.20
40948;BME280;49382;-25.924;28.194;2023-03-14T02:58:49;85336.42;;;20.53;39.66
40948;BME280;49382;-25.924;28.194;2023-03-14T03:01:14;85344.14;;;20.46;39.42
40948;BME280;49382;-25.924;28.194;2023-03-14T03:03:39;85336.78;;;20.20;40.21
40948;BME280;49382;-25.924;28.194;2023-03-14T03:06:06;85343.68;;;21.84;37.85
40948;BME280;49382;-25.924;28.194;2023-03-14T03:08:31;85345.57;;;21.15;38.66
40948;BME280;49382;-25.924;28.194;2023-03-14T03:10:57;85342.12;;;20.77;39.74
40948;BME280;49382;-25.924;28.194;2023-03-14T03:13:21;85345.97;;;21.90;37.88
40948;BME280;49382;-25.924;28.194;2023-03-14T03:15:47;85346.16;;;20.89;39.86
40948;BME280;49382;-25.924;28.194;2023-03-14T03:18:12;85347.36;;;20.48;40.08
40948;BME280;49382;-25.924;28.194;2023-03-14T03:20:37;85347.84;;;18.95;43.13
40948;BME280;49382;-25.924;28.194;2023-03-14T03:23:03;85351.11;;;19.67;41.95
40948;BME280;49382;-25.924;28.194;2023-03-14T03:25:28;85349.53;;;19.46;42.55
40948;BME280;49382;-25.924;28.194;2023-03-14T03:27:53;85353.35;;;21.49;39.24
40948;BME280;49382;-25.924;28.194;2023-03-14T03:30:19;85349.40;;;22.11;37.95
40948;BME280;49382;-25.924;28.194;2023-03-14T03:32:44;85349.12;;;19.67;42.12
40948;BME280;49382;-25.924;28.194;2023-03-14T03:35:09;85349.62;;;19.59;42.44
40948;BME280;49382;-25.924;28.194;2023-03-14T03:37:35;85349.45;;;21.34;39.92
40948;BME280;49382;-25.924;28.194;2023-03-14T03:39:59;85347.60;;;18.93;43.47
40948;BME280;49382;-25.924;28.194;2023-03-14T03:42:26;85344.92;;;20.48;40.75
40948;BME280;49382;-25.924;28.194;2023-03-14T03:44:52;85344.78;;;18.80;43.56
40948;BME280;49382;-25.924;28.194;2023-03-14T03:47:16;85349.14;;;18.63;44.01
40948;BME280;49382;-25.924;28.194;2023-03-14T03:49:42;85350.85;;;17.93;45.24
40948;BME280;49382;-25.924;28.194;2023-03-14T03:52:07;85351.50;;;19.37;42.78
40948;BME280;49382;-25.924;28.194;2023-03-14T03:54:32;85352.34;;;18.23;44.34
40948;BME280;49382;-25.924;28.194;2023-03-14T03:56:58;85352.18;;;18.35;44.24
40948;BME280;49382;-25.924;28.194;2023-03-14T03:59:24;85352.70;;;18.24;44.41
40948;BME280;49382;-25.924;28.194;2023-03-14T04:01:49;85350.83;;;18.54;43.65
40948;BME280;49382;-25.924;28.194;2023-03-14T04:04:15;85351.72;;;19.30;42.86
40948;BME280;49382;-25.924;28.194;2023-03-14T04:06:39;85354.05;;;20.01;41.85
40948;BME280;49382;-25.924;28.194;2023-03-14T04:09:05;85351.90;;;18.48;43.98
40948;BME280;49382;-25.924;28.194;2023-03-14T04:11:30;85354.36;;;20.56;40.93
40948;BME280;49382;-25.924;28.194;2023-03-14T04:13:56;85354.15;;;18.99;43.27
40948;BME280;49382;-25.924;28.194;2023-03-14T04:16:23;85353.39;;;18.21;44.56
40948;BME280;49382;-25.924;28.194;2023-03-14T04:18:47;85354.89;;;18.53;43.79
40948;BME280;49382;-25.924;28.194;2023-03-14T04:21:12;85360.06;;;18.18;44.61
40948;BME280;49382;-25.924;28.194;2023-03-14T04:23:38;85359.37;;;19.48;42.70
40948;BME280;49382;-25.924;28.194;2023-03-14T04:26:03;85361.15;;;20.26;41.58
40948;BME280;49382;-25.924;28.194;2023-03-14T04:28:28;85363.13;;;18.90;43.34
40948;BME280;49382;-25.924;28.194;2023-03-14T04:30:53;85363.50;;;19.80;42.14
40948;BME280;49382;-25.924;28.194;2023-03-14T04:33:18;85363.72;;;20.69;40.34
40948;BME280;49382;-25.924;28.194;2023-03-14T04:35:44;85364.17;;;19.70;41.62
40948;BME280;49382;-25.924;28.194;2023-03-14T04:38:10;85362.54;;;19.58;42.29
40948;BME280;49382;-25.924;28.194;2023-03-14T04:40:37;85363.20;;;18.22;44.58
40948;BME280;49382;-25.924;28.194;2023-03-14T04:43:01;85360.06;;;19.62;42.47
40948;BME280;49382;-25.924;28.194;2023-03-14T04:45:26;85359.75;;;20.54;41.09
40948;BME280;49382;-25.924;28.194;2023-03-14T04:47:53;85358.42;;;18.92;43.50
40948;BME280;49382;-25.924;28.194;2023-03-14T04:50:17;85363.14;;;19.14;43.72
40948;BME280;49382;-25.924;28.194;2023-03-14T04:52:43;85367.65;;;20.05;42.20
40948;BME280;49382;-25.924;28.194;2023-03-14T04:55:08;85368.45;;;19.02;43.62
40948;BME280;49382;-25.924;28.194;2023-03-14T04:57:34;85368.09;;;19.65;43.01
40948;BME280;49382;-25.924;28.194;2023-03-14T04:59:59;85367.37;;;19.30;43.81
40948;BME280;49382;-25.924;28.194;2023-03-14T05:02:25;85368.26;;;18.80;45.46
40948;BME280;49382;-25.924;28.194;2023-03-14T05:04:52;85369.34;;;19.99;43.34
40948;BME280;49382;-25.924;28.194;2023-03-14T05:07:16;85370.65;;;20.14;42.93
40948;BME280;49382;-25.924;28.194;2023-03-14T05:09:41;85374.63;;;20.52;42.35
40948;BME280;49382;-25.924;28.194;2023-03-14T05:12:07;85374.36;;;20.09;42.74
40948;BME280;49382;-25.924;28.194;2023-03-14T05:14:32;85375.85;;;20.12;42.30
40948;BME280;49382;-25.924;28.194;2023-03-14T05:16:57;85377.80;;;21.94;39.62
40948;BME280;49382;-25.924;28.194;2023-03-14T05:19:23;85378.86;;;22.90;37.88
40948;BME280;49382;-25.924;28.194;2023-03-14T05:21:48;85377.36;;;22.00;38.71
40948;BME280;49382;-25.924;28.194;2023-03-14T05:24:14;85380.55;;;21.56;40.05
40948;BME280;49382;-25.924;28.194;2023-03-14T05:26:39;85375.98;;;20.21;41.00
40948;BME280;49382;-25.924;28.194;2023-03-14T05:29:05;85385.37;;;21.28;41.24
40948;BME280;49382;-25.924;28.194;2023-03-14T05:31:31;85389.14;;;21.89;38.14
40948;BME280;49382;-25.924;28.194;2023-03-14T05:33:57;85391.01;;;23.40;37.06
40948;BME280;49382;-25.924;28.194;2023-03-14T05:36:23;85386.52;;;23.08;37.28
40948;BME280;49382;-25.924;28.194;2023-03-14T05:38:48;85387.73;;;21.27;39.37
40948;BME280;49382;-25.924;28.194;2023-03-14T05:41:14;85395.51;;;22.59;37.49
40948;BME280;49382;-25.924;28.194;2023-03-14T05:43:40;85391.02;;;23.19;37.18
40948;BME280;49382;-25.924;28.194;2023-03-14T05:46:06;85398.54;;;24.93;34.02
40948;BME280;49382;-25.924;28.194;2023-03-14T05:48:31;85392.99;;;24.32;34.09
40948;BME280;49382;-25.924;28.194;2023-03-14T05:50:57;85396.92;;;23.60;35.30
40948;BME280;49382;-25.924;28.194;2023-03-14T05:53:23;85390.17;;;24.09;34.77
40948;BME280;49382;-25.924;28.194;2023-03-14T05:55:52;85394.58;;;23.87;34.79
40948;BME280;49382;-25.924;28.194;2023-03-14T05:58:14;85391.02;;;23.06;35.69
40948;BME280;49382;-25.924;28.194;2023-03-14T06:00:40;85383.47;;;24.52;34.80
40948;BME280;49382;-25.924;28.194;2023-03-14T06:03:06;85389.71;;;25.81;32.44
40948;BME280;49382;-25.924;28.194;2023-03-14T06:05:32;85390.71;;;25.58;31.55
40948;BME280;49382;-25.924;28.194;2023-03-14T06:07:57;85387.79;;;24.43;33.01
40948;BME280;49382;-25.924;28.194;2023-03-14T06:10:23;85385.72;;;25.57;32.37
40948;BME280;49382;-25.924;28.194;2023-03-14T06:12:49;85391.60;;;24.02;34.28
40948;BME280;49382;-25.924;28.194;2023-03-14T06:15:14;85391.97;;;25.18;32.97
40948;BME280;49382;-25.924;28.194;2023-03-14T06:17:40;85387.08;;;23.55;34.47
40948;BME280;49382;-25.924;28.194;2023-03-14T06:20:07;85392.00;;;23.05;34.93
40948;BME280;49382;-25.924;28.194;2023-03-14T06:22:32;85388.36;;;24.68;33.67
40948;BME280;49382;-25.924;28.194;2023-03-14T06:24:57;85386.90;;;23.66;34.50
40948;BME280;49382;-25.924;28.194;2023-03-14T06:27:23;85392.04;;;23.14;36.09
40948;BME280;49382;-25.924;28.194;2023-03-14T06:29:49;85384.28;;;23.90;34.29
40948;BME280;49382;-25.924;28.194;2023-03-14T06:32:15;85385.19;;;24.77;34.47
40948;BME280;49382;-25.924;28.194;2023-03-14T06:34:40;85383.98;;;25.43;32.81
40948;BME280;49382;-25.924;28.194;2023-03-14T06:37:06;85391.07;;;24.26;33.62
40948;BME280;49382;-25.924;28.194;2023-03-14T06:39:32;85385.55;;;24.43;32.87
40948;BME280;49382;-25.924;28.194;2023-03-14T06:41:58;85382.71;;;25.11;32.07
40948;BME280;49382;-25.924;28.194;2023-03-14T06:44:23;85387.30;;;23.77;35.46
40948;BME280;49382;-25.924;28.194;2023-03-14T06:46:49;85391.87;;;24.87;33.46
40948;BME280;49382;-25.924;28.194;2023-03-14T06:49:15;85385.99;;;25.42;35.29
40948;BME280;49382;-25.924;28.194;2023-03-14T06:51:41;85385.53;;;25.61;35.81
40948;BME280;49382;-25.924;28.194;2023-03-14T06:54:06;85383.47;;;23.78;36.64
40948;BME280;49382;-25.924;28.194;2023-03-14T06:56:32;85381.02;;;24.48;41.98
40948;BME280;49382;-25.924;28.194;2023-03-14T06:58:58;85380.80;;;25.00;38.68
40948;BME280;49382;-25.924;28.194;2023-03-14T07:01:26;85383.57;;;24.53;35.78
40948;BME280;49382;-25.924;28.194;2023-03-14T07:03:49;85382.12;;;23.71;37.44
40948;BME280;49382;-25.924;28.194;2023-03-14T07:06:15;85387.68;;;23.68;35.44
40948;BME280;49382;-25.924;28.194;2023-03-14T07:08:41;85385.68;;;25.08;35.51
40948;BME280;49382;-25.924;28.194;2023-03-14T07:11:07;85386.87;;;24.78;36.70
40948;BME280;49382;-25.924;28.194;2023-03-14T07:13:32;85386.42;;;26.07;33.49
40948;BME280;49382;-25.924;28.194;2023-03-14T07:15:58;85383.26;;;25.70;34.24
40948;BME280;49382;-25.924;28.194;2023-03-14T07:18:24;85383.14;;;25.52;34.61
40948;BME280;49382;-25.924;28.194;2023-03-14T07:20:50;85388.88;;;24.79;34.93
40948;BME280;49382;-25.924;28.194;2023-03-14T07:23:15;85379.90;;;23.42;35.50
40948;BME280;49382;-25.924;28.194;2023-03-14T07:25:41;85381.91;;;25.64;38.89
40948;BME280;49382;-25.924;28.194;2023-03-14T07:28:07;85388.73;;;25.99;37.82
40948;BME280;49382;-25.924;28.194;2023-03-14T07:30:32;85379.78;;;25.47;35.97
40948;BME280;49382;-25.924;28.194;2023-03-14T07:32:58;85383.17;;;26.21;36.58
40948;BME280;49382;-25.924;28.194;2023-03-14T07:35:24;85384.94;;;25.11;38.80
40948;BME280;49382;-25.924;28.194;2023-03-14T07:37:50;85384.44;;;27.00;33.24
40948;BME280;49382;-25.924;28.194;2023-03-14T07:40:15;85382.75;;;24.54;35.34
40948;BME280;49382;-25.924;28.194;2023-03-14T07:42:40;85381.48;;;23.53;35.94
40948;BME280;49382;-25.924;28.194;2023-03-14T07:45:06;85382.03;;;25.42;35.33
40948;BME280;49382;-25.924;28.194;2023-03-14T07:47:31;85381.99;;;26.77;32.84
40948;BME280;49382;-25.924;28.194;2023-03-14T07:49:56;85381.35;;;26.25;32.23
40948;BME280;49382;-25.924;28.194;2023-03-14T07:52:22;85376.91;;;26.71;30.74
40948;BME280;49382;-25.924;28.194;2023-03-14T07:54:48;85379.22;;;26.35;32.25
40948;BME280;49382;-25.924;28.194;2023-03-14T07:57:14;85387.23;;;27.63;30.60
40948;BME280;49382;-25.924;28.194;2023-03-14T07:59:39;85381.60;;;27.12;32.75
40948;BME280;49382;-25.924;28.194;2023-03-14T08:02:05;85382.75;;;27.42;30.41
40948;BME280;49382;-25.924;28.194;2023-03-14T08:04:32;85377.14;;;27.07;30.56
40948;BME280;49382;-25.924;28.194;2023-03-14T08:06:56;85377.60;;;26.77;30.65
40948;BME280;49382;-25.924;28.194;2023-03-14T08:09:22;85380.26;;;27.37;29.05
40948;BME280;49382;-25.924;28.194;2023-03-14T08:11:48;85379.34;;;27.99;28.02
40948;BME280;49382;-25.924;28.194;2023-03-14T08:14:14;85367.09;;;26.79;29.03
40948;BME280;49382;-25.924;28.194;2023-03-14T08:16:39;85371.80;;;27.25;28.02
40948;BME280;49382;-25.924;28.194;2023-03-14T08:19:05;85376.47;;;27.81;28.90
40948;BME280;49382;-25.924;28.194;2023-03-14T08:21:31;85363.69;;;25.14;28.70
40948;BME280;49382;-25.924;28.194;2023-03-14T08:23:57;85363.61;;;27.17;29.10
40948;BME280;49382;-25.924;28.194;2023-03-14T08:26:22;85369.51;;;28.69;27.21
40948;BME280;49382;-25.924;28.194;2023-03-14T08:28:48;85361.33;;;29.19;25.64
40948;BME280;49382;-25.924;28.194;2023-03-14T08:31:14;85361.78;;;28.70;25.45
40948;BME280;49382;-25.924;28.194;2023-03-14T08:33:39;85363.79;;;27.50;27.02
40948;BME280;49382;-25.924;28.194;2023-03-14T08:36:06;85354.15;;;28.65;25.66
40948;BME280;49382;-25.924;28.194;2023-03-14T08:38:31;85359.42;;;29.47;25.75
40948;BME280;49382;-25.924;28.194;2023-03-14T08:40:57;85359.01;;;27.68;25.43
40948;BME280;49382;-25.924;28.194;2023-03-14T08:43:24;85352.02;;;27.92;25.88
40948;BME280;49382;-25.924;28.194;2023-03-14T08:45:48;85350.86;;;26.98;25.75
40948;BME280;49382;-25.924;28.194;2023-03-14T08:48:14;85345.50;;;27.71;25.83
40948;BME280;49382;-25.924;28.194;2023-03-14T08:50:39;85345.01;;;28.61;26.65
40948;BME280;49382;-25.924;28.194;2023-03-14T08:53:05;85342.13;;;29.37;25.68
40948;BME280;49382;-25.924;28.194;2023-03-14T08:55:31;85336.22;;;28.79;28.40
40948;BME280;49382;-25.924;28.194;2023-03-14T08:57:57;85336.88;;;29.20;27.40
40948;BME280;49382;-25.924;28.194;2023-03-14T09:00:22;85337.45;;;28.11;28.45
40948;BME280;49382;-25.924;28.194;2023-03-14T09:02:48;85334.12;;;29.82;24.17
40948;BME280;49382;-25.924;28.194;2023-03-14T09:05:14;85326.43;;;29.93;24.22
40948;BME280;49382;-25.924;28.194;2023-03-14T09:07:40;85323.88;;;29.50;24.25
40948;BME280;49382;-25.924;28.194;2023-03-14T09:10:06;85322.56;;;27.93;26.30
40948;BME280;49382;-25.924;28.194;2023-03-14T09:12:31;85330.95;;;29.32;25.17
40948;BME280;49382;-25.924;28.194;2023-03-14T09:14:56;85318.49;;;29.02;24.85
40948;BME280;49382;-25.924;28.194;2023-03-14T09:17:22;85319.47;;;29.09;26.60
40948;BME280;49382;-25.924;28.194;2023-03-14T09:19:48;85314.84;;;29.14;25.94
40948;BME280;49382;-25.924;28.194;2023-03-14T09:22:14;85305.49;;;28.06;27.85
40948;BME280;49382;-25.924;28.194;2023-03-14T09:24:41;85306.99;;;29.32;26.92
40948;BME280;49382;-25.924;28.194;2023-03-14T09:27:05;85302.89;;;27.88;27.14
40948;BME280;49382;-25.924;28.194;2023-03-14T09:29:31;85301.33;;;28.94;26.07
40948;BME280;49382;-25.924;28.194;2023-03-14T09:31:58;85297.63;;;28.76;25.94
40948;BME280;49382;-25.924;28.194;2023-03-14T09:34:22;85295.52;;;29.47;26.41
40948;BME280;49382;-25.924;28.194;2023-03-14T09:36:48;85284.07;;;27.49;25.88
40948;BME280;49382;-25.924;28.194;2023-03-14T09:39:14;85290.11;;;27.89;26.10
40948;BME280;49382;-25.924;28.194;2023-03-14T09:41:41;85282.29;;;28.67;24.63
40948;BME280;49382;-25.924;28.194;2023-03-14T09:46:32;85288.57;;;26.84;24.18
40948;BME280;49382;-25.924;28.194;2023-03-14T09:48:57;85270.01;;;27.86;24.74
40948;BME280;49382;-25.924;28.194;2023-03-14T09:51:22;85264.18;;;25.99;28.82
40948;BME280;49382;-25.924;28.194;2023-03-14T09:53:49;85266.59;;;27.04;29.51
40948;BME280;49382;-25.924;28.194;2023-03-14T09:56:18;85265.01;;;28.29;26.70
40948;BME280;49382;-25.924;28.194;2023-03-14T09:58:41;85265.54;;;28.07;24.30
40948;BME280;49382;-25.924;28.194;2023-03-14T10:01:07;85258.52;;;28.40;25.41
40948;BME280;49382;-25.924;28.194;2023-03-14T10:03:33;85254.13;;;28.69;24.42
40948;BME280;49382;-25.924;28.194;2023-03-14T10:05:57;85248.25;;;29.08;24.14
40948;BME280;49382;-25.924;28.194;2023-03-14T10:08:22;85241.91;;;29.15;23.11
40948;BME280;49382;-25.924;28.194;2023-03-14T10:10:48;85238.64;;;29.39;22.78
40948;BME280;49382;-25.924;28.194;2023-03-14T10:13:16;85242.68;;;28.91;24.76
40948;BME280;49382;-25.924;28.194;2023-03-14T10:15:40;85235.76;;;27.80;24.12
40948;BME280;49382;-25.924;28.194;2023-03-14T10:18:11;85236.12;;;28.48;24.14
40948;BME280;49382;-25.924;28.194;2023-03-14T10:20:34;85225.27;;;26.67;23.54
40948;BME280;49382;-25.924;28.194;2023-03-14T10:22:57;85225.82;;;27.06;23.68
40948;BME280;49382;-25.924;28.194;2023-03-14T10:25:28;85219.44;;;27.35;23.58
40948;BME280;49382;-25.924;28.194;2023-03-14T10:27:48;85217.62;;;27.25;23.46
40948;BME280;49382;-25.924;28.194;2023-03-14T10:32:40;85209.97;;;27.28;23.16
40948;BME280;49382;-25.924;28.194;2023-03-14T10:37:31;85200.19;;;28.98;22.24
40948;BME280;49382;-25.924;28.194;2023-03-14T10:40:00;85202.37;;;29.11;21.33
40948;BME280;49382;-25.924;28.194;2023-03-14T10:42:26;85199.96;;;29.12;21.57
40948;BME280;49382;-25.924;28.194;2023-03-14T10:44:54;85193.34;;;28.75;21.99
40948;BME280;49382;-25.924;28.194;2023-03-14T10:47:19;85190.90;;;27.19;22.80
40948;BME280;49382;-25.924;28.194;2023-03-14T10:49:39;85186.94;;;26.18;23.91
40948;BME280;49382;-25.924;28.194;2023-03-14T10:54:31;85178.08;;;27.79;24.03
40948;BME280;49382;-25.924;28.194;2023-03-14T10:56:58;85176.78;;;27.32;25.11
40948;BME280;49382;-25.924;28.194;2023-03-14T10:59:22;85168.86;;;28.80;23.93
40948;BME280;49382;-25.924;28.194;2023-03-14T11:01:53;85170.90;;;27.94;22.56
40948;BME280;49382;-25.924;28.194;2023-03-14T11:04:23;85157.51;;;28.74;20.91
40948;BME280;49382;-25.924;28.194;2023-03-14T11:06:43;85168.16;;;26.88;21.56
40948;BME280;49382;-25.924;28.194;2023-03-14T11:09:14;85159.46;;;27.03;19.29
40948;BME280;49382;-25.924;28.194;2023-03-14T11:11:31;85165.52;;;27.65;20.06
40948;BME280;49382;-25.924;28.194;2023-03-14T11:14:07;85161.70;;;27.68;20.40
40948;BME280;49382;-25.924;28.194;2023-03-14T11:16:28;85157.52;;;26.48;21.57
40948;BME280;49382;-25.924;28.194;2023-03-14T11:21:19;85146.84;;;26.35;23.84
40948;BME280;49382;-25.924;28.194;2023-03-14T11:23:47;85137.27;;;27.99;22.14
40948;BME280;49382;-25.924;28.194;2023-03-14T11:26:16;85146.05;;;27.45;22.19
40948;BME280;49382;-25.924;28.194;2023-03-14T11:28:35;85144.83;;;27.36;20.79
40948;BME280;49382;-25.924;28.194;2023-03-14T11:31:00;85140.97;;;27.88;20.23
40948;BME280;49382;-25.924;28.194;2023-03-14T11:33:25;85137.22;;;28.28;20.40
40948;BME280;49382;-25.924;28.194;2023-03-14T11:35:52;85127.63;;;28.36;20.29
40948;BME280;49382;-25.924;28.194;2023-03-14T11:38:23;85127.34;;;28.86;20.54
40948;BME280;49382;-25.924;28.194;2023-03-14T11:40:40;85119.42;;;28.44;21.11
40948;BME280;49382;-25.924;28.194;2023-03-14T11:43:11;85115.10;;;27.97;22.68
40948;BME280;49382;-25.924;28.194;2023-03-14T11:45:35;85118.15;;;27.04;21.78
40948;BME280;49382;-25.924;28.194;2023-03-14T11:50:24;85118.84;;;26.68;20.64
40948;BME280;49382;-25.924;28.194;2023-03-14T11:52:51;85113.94;;;27.43;20.28
40948;BME280;49382;-25.924;28.194;2023-03-14T11:55:19;85105.35;;;27.71;19.16
40948;BME280;49382;-25.924;28.194;2023-03-14T11:57:40;85107.59;;;27.98;18.84
40948;BME280;49382;-25.924;28.194;2023-03-14T12:00:13;85101.76;;;28.14;18.48
40948;BME280;49382;-25.924;28.194;2023-03-14T12:02:39;85102.24;;;28.77;17.61
40948;BME280;49382;-25.924;28.194;2023-03-14T12:07:27;85101.24;;;27.47;17.20
40948;BME280;49382;-25.924;28.194;2023-03-14T12:09:49;85104.80;;;26.59;19.28
40948;BME280;49382;-25.924;28.194;2023-03-14T12:12:16;85096.13;;;28.44;18.45
40948;BME280;49382;-25.924;28.194;2023-03-14T12:14:45;85087.02;;;27.85;17.67
40948;BME280;49382;-25.924;28.194;2023-03-14T12:17:07;85094.20;;;28.54;18.33
40948;BME280;49382;-25.924;28.194;2023-03-14T12:19:33;85085.26;;;28.77;18.16
40948;BME280;49382;-25.924;28.194;2023-03-14T12:22:00;85079.10;;;28.74;16.50
40948;BME280;49382;-25.924;28.194;2023-03-14T12:24:24;85083.88;;;28.48;16.41
40948;BME280;49382;-25.924;28.194;2023-03-14T12:26:55;85080.91;;;28.43;16.26
40948;BME280;49382;-25.924;28.194;2023-03-14T12:29:17;85077.62;;;29.06;16.51
40948;BME280;49382;-25.924;28.194;2023-03-14T12:31:44;85071.10;;;29.50;16.55
40948;BME280;49382;-25.924;28.194;2023-03-14T12:41:26;85072.50;;;28.69;15.87
40948;BME280;49382;-25.924;28.194;2023-03-14T12:43:48;85078.39;;;29.25;17.43
40948;BME280;49382;-25.924;28.194;2023-03-14T12:46:22;85073.30;;;29.57;17.18
40948;BME280;49382;-25.924;28.194;2023-03-14T12:48:40;85072.87;;;29.37;16.80
40948;BME280;49382;-25.924;28.194;2023-03-14T12:51:12;85067.96;;;29.43;16.63
40948;BME280;49382;-25.924;28.194;2023-03-14T12:53:40;85069.39;;;29.38;17.47
40948;BME280;49382;-25.924;28.194;2023-03-14T12:56:00;85065.67;;;29.20;18.00
40948;BME280;49382;-25.924;28.194;2023-03-14T12:58:26;85059.26;;;29.16;17.10
40948;BME280;49382;-25.924;28.194;2023-03-14T13:00:54;85060.11;;;29.18;17.19